createdAt,value
2022-11-02T00:00:15.116Z,0.00
2022-11-02T00:01:15.151Z,0.00
2022-11-02T00:02:15.149Z,0.00
2022-11-02T00:03:15.083Z,0.00
2022-11-02T00:04:15.073Z,0.00
2022-11-02T00:05:15.063Z,0.00
2022-11-02T00:06:15.079Z,0.00
2022-11-02T00:07:15.049Z,0.00
2022-11-02T00:08:15.035Z,0.00
2022-11-02T00:09:15.030Z,0.00
2022-11-02T00:10:15.017Z,0.00
2022-11-02T00:11:15.038Z,0.00
2022-11-02T00:12:15.001Z,0.00
2022-11-02T00:13:14.994Z,0.00
2022-11-02T00:14:14.975Z,0.00
2022-11-02T00:15:15.001Z,0.00
2022-11-02T00:16:14.966Z,0.00
2022-11-02T00:17:14.955Z,0.00
2022-11-02T00:18:14.951Z,0.00
2022-11-02T00:19:14.940Z,0.00
2022-11-02T00:20:14.925Z,0.00
2022-11-02T00:21:14.952Z,0.00
2022-11-02T00:22:14.909Z,0.00
2022-11-02T00:23:14.912Z,0.00
2022-11-02T00:24:14.892Z,0.00
2022-11-02T00:25:14.888Z,0.00
2022-11-02T00:26:14.906Z,0.00
2022-11-02T00:27:16.014Z,0.00
2022-11-02T00:28:15.999Z,0.00
2022-11-02T00:29:15.993Z,0.00
2022-11-02T00:30:15.986Z,0.00
2022-11-02T00:31:16.010Z,0.00
2022-11-02T00:32:15.968Z,0.00
2022-11-02T00:33:15.964Z,0.00
2022-11-02T00:34:15.950Z,0.00
2022-11-02T00:35:15.944Z,0.00
2022-11-02T00:36:15.966Z,0.00
2022-11-02T00:37:15.921Z,0.00
2022-11-02T00:38:15.912Z,0.00
2022-11-02T00:39:15.904Z,0.00
2022-11-02T00:40:15.896Z,0.00
2022-11-02T00:41:15.912Z,0.00
2022-11-02T00:42:15.879Z,0.00
2022-11-02T00:43:15.872Z,0.00
2022-11-02T00:44:15.867Z,0.00
2022-11-02T00:45:15.852Z,0.00
2022-11-02T00:46:15.871Z,0.00
2022-11-02T00:47:15.835Z,0.00
2022-11-02T00:48:15.832Z,0.00
2022-11-02T00:49:15.821Z,0.00
2022-11-02T00:50:15.815Z,0.00
2022-11-02T00:51:15.827Z,0.00
2022-11-02T00:52:15.794Z,0.00
2022-11-02T00:53:15.783Z,0.00
2022-11-02T00:54:15.784Z,0.00
2022-11-02T00:55:15.766Z,0.00
2022-11-02T00:56:15.799Z,0.00
2022-11-02T00:57:15.756Z,0.00
2022-11-02T00:58:15.752Z,0.00
2022-11-02T00:59:15.735Z,0.00
2022-11-02T01:00:15.736Z,0.00
2022-11-02T01:01:15.891Z,0.00
2022-11-02T01:02:15.807Z,0.00
2022-11-02T01:03:15.710Z,0.00
2022-11-02T01:04:15.699Z,0.00
2022-11-02T01:05:15.683Z,0.00
2022-11-02T01:06:15.775Z,0.00
2022-11-02T01:07:15.667Z,0.00
2022-11-02T01:08:15.659Z,0.00
2022-11-02T01:09:15.644Z,0.00
2022-11-02T01:10:15.635Z,0.00
2022-11-02T01:11:15.662Z,0.00
2022-11-02T01:12:15.617Z,0.00
2022-11-02T01:13:15.612Z,0.00
2022-11-02T01:14:15.608Z,0.00
2022-11-02T01:15:15.596Z,0.00
2022-11-02T01:16:15.613Z,0.00
2022-11-02T01:17:15.580Z,0.00
2022-11-02T01:18:15.568Z,0.00
2022-11-02T01:19:15.564Z,0.00
2022-11-02T01:20:15.555Z,0.00
2022-11-02T01:21:15.578Z,0.00
2022-11-02T01:22:15.537Z,0.00
2022-11-02T01:23:15.541Z,0.00
2022-11-02T01:24:15.528Z,0.00
2022-11-02T01:25:15.516Z,0.00
2022-11-02T01:26:15.541Z,0.00
2022-11-02T01:27:15.510Z,0.00
2022-11-02T01:28:15.494Z,0.00
2022-11-02T01:29:15.486Z,0.00
2022-11-02T01:30:15.468Z,0.00
2022-11-02T01:31:15.509Z,0.00
2022-11-02T01:32:15.453Z,0.00
2022-11-02T01:33:15.450Z,0.00
2022-11-02T01:34:15.442Z,0.00
2022-11-02T01:35:15.446Z,0.00
2022-11-02T01:36:15.535Z,0.00
2022-11-02T01:37:15.415Z,0.00
2022-11-02T01:38:15.404Z,0.00
2022-11-02T01:39:15.400Z,0.00
2022-11-02T01:40:15.388Z,0.00
2022-11-02T01:41:15.415Z,0.00
2022-11-02T01:42:15.370Z,0.00
2022-11-02T01:43:15.364Z,0.00
2022-11-02T01:44:15.357Z,0.00
2022-11-02T01:45:15.348Z,0.00
2022-11-02T01:46:15.378Z,0.00
2022-11-02T01:47:15.330Z,0.00
2022-11-02T01:48:15.321Z,0.00
2022-11-02T01:49:15.318Z,0.00
2022-11-02T01:50:15.298Z,0.00
2022-11-02T01:51:15.337Z,0.00
2022-11-02T01:52:15.300Z,0.00
2022-11-02T01:53:15.289Z,0.00
2022-11-02T01:54:15.270Z,0.00
2022-11-02T01:55:15.262Z,0.00
2022-11-02T01:56:15.370Z,0.00
2022-11-02T01:57:15.273Z,0.00
2022-11-02T01:58:15.237Z,0.00
2022-11-02T01:59:15.237Z,0.00
2022-11-02T02:00:15.224Z,0.00
2022-11-02T02:01:15.311Z,0.00
2022-11-02T02:02:15.387Z,0.00
2022-11-02T02:03:15.200Z,0.00
2022-11-02T02:04:15.194Z,0.00
2022-11-02T02:05:15.176Z,0.00
2022-11-02T02:06:15.172Z,0.00
2022-11-02T02:07:15.180Z,0.00
2022-11-02T02:08:16.158Z,0.00
2022-11-02T02:09:15.151Z,0.00
2022-11-02T02:10:15.139Z,0.00
2022-11-02T02:11:15.143Z,0.00
2022-11-02T02:12:15.160Z,0.00
2022-11-02T02:13:15.118Z,0.00
2022-11-02T02:14:15.102Z,0.00
2022-11-02T02:15:15.096Z,0.00
2022-11-02T02:16:15.090Z,0.00
2022-11-02T02:17:15.114Z,0.00
2022-11-02T02:18:15.070Z,0.00
2022-11-02T02:19:15.063Z,0.00
2022-11-02T02:20:15.059Z,0.00
2022-11-02T02:21:15.043Z,0.00
2022-11-02T02:22:15.065Z,0.00
2022-11-02T02:23:15.036Z,0.00
2022-11-02T02:24:15.020Z,0.00
2022-11-02T02:25:15.029Z,0.00
2022-11-02T02:26:15.002Z,0.00
2022-11-02T02:27:15.033Z,0.00
2022-11-02T02:28:15.000Z,0.00
2022-11-02T02:29:14.976Z,0.00
2022-11-02T02:30:14.981Z,0.00
2022-11-02T02:31:14.963Z,0.00
2022-11-02T02:32:14.984Z,0.00
2022-11-02T02:33:14.942Z,0.00
2022-11-02T02:34:14.947Z,0.00
2022-11-02T02:35:14.927Z,0.00
2022-11-02T02:36:14.926Z,0.00
2022-11-02T02:37:14.945Z,0.00
2022-11-02T02:38:14.902Z,0.00
2022-11-02T02:39:14.894Z,0.00
2022-11-02T02:40:14.895Z,0.00
2022-11-02T02:41:14.900Z,0.00
2022-11-02T02:42:14.900Z,0.00
2022-11-02T02:43:14.863Z,0.00
2022-11-02T02:44:14.856Z,0.00
2022-11-02T02:45:14.835Z,0.00
2022-11-02T02:46:15.847Z,0.00
2022-11-02T02:47:14.860Z,0.00
2022-11-02T02:48:14.822Z,0.00
2022-11-02T02:49:14.812Z,0.00
2022-11-02T02:50:14.803Z,0.00
2022-11-02T02:51:14.815Z,0.00
2022-11-02T02:52:14.821Z,0.00
2022-11-02T02:53:14.790Z,0.00
2022-11-02T02:54:14.780Z,0.00
2022-11-02T02:55:14.774Z,0.00
2022-11-02T02:56:14.758Z,0.00
2022-11-02T02:57:14.774Z,0.00
2022-11-02T02:58:14.747Z,0.00
2022-11-02T02:59:14.738Z,0.00
2022-11-02T03:00:14.728Z,0.00
2022-11-02T03:01:14.780Z,0.00
2022-11-02T03:02:14.818Z,0.00
2022-11-02T03:03:14.699Z,0.00
2022-11-02T03:04:14.693Z,0.00
2022-11-02T03:05:14.691Z,0.00
2022-11-02T03:06:14.680Z,0.00
2022-11-02T03:07:14.707Z,0.00
2022-11-02T03:08:14.663Z,0.00
2022-11-02T03:09:14.647Z,0.00
2022-11-02T03:10:14.641Z,0.00
2022-11-02T03:11:14.636Z,0.00
2022-11-02T03:12:14.662Z,0.00
2022-11-02T03:13:14.628Z,0.00
2022-11-02T03:14:14.613Z,0.00
2022-11-02T03:15:14.601Z,0.00
2022-11-02T03:16:14.602Z,0.00
2022-11-02T03:17:14.584Z,0.00
2022-11-02T03:18:14.612Z,0.00
2022-11-02T03:19:14.572Z,0.00
2022-11-02T03:20:14.558Z,0.00
2022-11-02T03:21:14.559Z,0.00
2022-11-02T03:22:14.545Z,0.00
2022-11-02T03:23:14.566Z,0.00
2022-11-02T03:24:14.530Z,0.00
2022-11-02T03:25:14.518Z,0.00
2022-11-02T03:26:14.516Z,0.00
2022-11-02T03:27:14.533Z,0.00
2022-11-02T03:28:14.519Z,0.00
2022-11-02T03:29:14.482Z,0.00
2022-11-02T03:30:14.474Z,0.00
2022-11-02T03:31:14.472Z,0.00
2022-11-02T03:32:14.484Z,0.00
2022-11-02T03:33:14.449Z,0.00
2022-11-02T03:34:14.448Z,0.00
2022-11-02T03:35:14.434Z,0.00
2022-11-02T03:36:14.428Z,0.00
2022-11-02T03:37:14.481Z,0.00
2022-11-02T03:38:14.413Z,0.00
2022-11-02T03:39:14.405Z,0.00
2022-11-02T03:40:14.392Z,0.00
2022-11-02T03:41:14.386Z,0.00
2022-11-02T03:42:14.397Z,0.00
2022-11-02T03:43:14.367Z,0.00
2022-11-02T03:44:14.360Z,0.00
2022-11-02T03:45:14.387Z,0.00
2022-11-02T03:46:14.345Z,0.00
2022-11-02T03:47:14.354Z,0.00
2022-11-02T03:48:15.324Z,0.00
2022-11-02T03:49:14.312Z,0.00
2022-11-02T03:50:14.304Z,0.00
2022-11-02T03:51:14.298Z,0.00
2022-11-02T03:52:14.328Z,0.00
2022-11-02T03:53:14.289Z,0.00
2022-11-02T03:54:14.279Z,0.00
2022-11-02T03:55:14.266Z,0.00
2022-11-02T03:56:14.269Z,0.00
2022-11-02T03:57:14.280Z,0.00
2022-11-02T03:58:14.240Z,0.00
2022-11-02T03:59:14.237Z,0.00
2022-11-02T04:00:14.222Z,0.00
2022-11-02T04:01:14.272Z,0.00
2022-11-02T04:02:14.357Z,0.00
2022-11-02T04:03:14.196Z,0.00
2022-11-02T04:04:14.190Z,0.00
2022-11-02T04:05:14.181Z,0.00
2022-11-02T04:06:14.206Z,0.00
2022-11-02T04:07:14.197Z,0.00
2022-11-02T04:08:14.178Z,0.00
2022-11-02T04:09:14.163Z,0.00
2022-11-02T04:10:14.166Z,0.00
2022-11-02T04:11:14.130Z,0.00
2022-11-02T04:12:14.167Z,0.00
2022-11-02T04:13:14.110Z,0.00
2022-11-02T04:14:14.151Z,0.00
2022-11-02T04:15:14.100Z,0.00
2022-11-02T04:16:14.088Z,0.00
2022-11-02T04:17:14.084Z,0.00
2022-11-02T04:18:14.143Z,0.00
2022-11-02T04:19:14.076Z,0.00
2022-11-02T04:20:14.077Z,0.00
2022-11-02T04:21:14.045Z,0.00
2022-11-02T04:22:14.037Z,0.00
2022-11-02T04:23:14.062Z,0.00
2022-11-02T04:24:14.024Z,0.00
2022-11-02T04:25:14.017Z,0.00
2022-11-02T04:26:14.130Z,0.00
2022-11-02T04:27:18.114Z,0.00
2022-11-02T04:28:16.014Z,0.00
2022-11-02T04:29:13.982Z,0.00
2022-11-02T04:30:13.979Z,0.00
2022-11-02T04:31:13.967Z,0.00
2022-11-02T04:32:13.962Z,0.00
2022-11-02T04:33:13.986Z,0.00
2022-11-02T04:34:13.944Z,0.00
2022-11-02T04:35:13.939Z,0.00
2022-11-02T04:36:13.926Z,0.00
2022-11-02T04:37:13.930Z,0.00
2022-11-02T04:38:13.936Z,0.00
2022-11-02T04:39:13.898Z,0.00
2022-11-02T04:40:13.894Z,0.00
2022-11-02T04:41:13.879Z,0.00
2022-11-02T04:42:13.876Z,0.00
2022-11-02T04:43:13.887Z,0.00
2022-11-02T04:44:13.854Z,0.00
2022-11-02T04:45:13.847Z,0.00
2022-11-02T04:46:13.840Z,0.00
2022-11-02T04:47:13.834Z,0.00
2022-11-02T04:48:13.848Z,0.00
2022-11-02T04:49:13.809Z,0.00
2022-11-02T04:50:13.796Z,0.00
2022-11-02T04:51:13.796Z,0.00
2022-11-02T04:52:13.786Z,0.00
2022-11-02T04:53:13.810Z,0.00
2022-11-02T04:54:13.771Z,0.00
2022-11-02T04:55:13.761Z,0.00
2022-11-02T04:56:13.754Z,0.00
2022-11-02T04:57:13.744Z,0.00
2022-11-02T04:58:13.763Z,0.00
2022-11-02T04:59:13.734Z,0.00
2022-11-02T05:00:13.721Z,0.00
2022-11-02T05:01:13.740Z,0.00
2022-11-02T05:02:13.806Z,0.00
2022-11-02T05:03:13.726Z,0.00
2022-11-02T05:04:13.683Z,0.00
2022-11-02T05:05:13.693Z,0.00
2022-11-02T05:06:13.668Z,0.00
2022-11-02T05:07:13.659Z,0.00
2022-11-02T05:08:13.692Z,0.00
2022-11-02T05:09:13.645Z,0.00
2022-11-02T05:10:13.648Z,0.00
2022-11-02T05:11:13.625Z,0.00
2022-11-02T05:12:13.642Z,0.00
2022-11-02T05:13:13.607Z,0.00
2022-11-02T05:14:13.631Z,0.00
2022-11-02T05:15:13.597Z,0.00
2022-11-02T05:16:13.592Z,0.00
2022-11-02T05:17:13.583Z,0.00
2022-11-02T05:18:18.466Z,0.00
2022-11-02T05:19:15.590Z,0.00
2022-11-02T05:20:13.558Z,0.00
2022-11-02T05:21:13.548Z,0.00
2022-11-02T05:22:13.545Z,0.00
2022-11-02T05:23:13.532Z,0.00
2022-11-02T05:24:13.551Z,0.00
2022-11-02T05:25:13.515Z,0.00
2022-11-02T05:26:13.503Z,0.00
2022-11-02T05:27:13.496Z,0.00
2022-11-02T05:28:13.516Z,0.00
2022-11-02T05:29:13.516Z,0.00
2022-11-02T05:30:13.476Z,0.00
2022-11-02T05:31:13.449Z,0.00
2022-11-02T05:32:14.466Z,0.00
2022-11-02T05:33:13.448Z,0.00
2022-11-02T05:34:13.483Z,0.00
2022-11-02T05:35:13.439Z,0.00
2022-11-02T05:36:13.421Z,0.00
2022-11-02T05:37:13.410Z,0.00
2022-11-02T05:38:13.407Z,0.00
2022-11-02T05:39:13.477Z,0.00
2022-11-02T05:40:13.394Z,0.00
2022-11-02T05:41:13.384Z,0.00
2022-11-02T05:42:13.358Z,0.00
2022-11-02T05:43:14.365Z,0.00
2022-11-02T05:44:13.408Z,0.00
2022-11-02T05:45:13.345Z,0.00
2022-11-02T05:46:13.339Z,0.00
2022-11-02T05:47:14.344Z,0.00
2022-11-02T05:48:13.321Z,0.00
2022-11-02T05:49:13.344Z,0.00
2022-11-02T05:50:13.300Z,0.00
2022-11-02T05:51:13.284Z,0.00
2022-11-02T05:52:14.296Z,0.00
2022-11-02T05:53:13.275Z,0.00
2022-11-02T05:54:13.299Z,0.00
2022-11-02T05:55:13.268Z,0.00
2022-11-02T05:56:13.246Z,0.00
2022-11-02T05:57:13.241Z,0.00
2022-11-02T05:58:13.232Z,0.00
2022-11-02T05:59:13.253Z,0.00
2022-11-02T06:00:13.221Z,0.00
2022-11-02T06:01:13.277Z,5.62
2022-11-02T06:02:13.199Z,5.62
2022-11-02T06:03:13.186Z,5.62
2022-11-02T06:04:13.252Z,5.62
2022-11-02T06:05:13.211Z,5.62
2022-11-02T06:06:13.173Z,5.62
2022-11-02T06:07:13.150Z,11.25
2022-11-02T06:08:13.166Z,11.25
2022-11-02T06:09:13.165Z,11.25
2022-11-02T06:10:13.135Z,11.25
2022-11-02T06:11:13.123Z,11.25
2022-11-02T06:12:13.113Z,11.25
2022-11-02T06:13:13.103Z,16.88
2022-11-02T06:14:13.129Z,16.88
2022-11-02T06:15:13.089Z,16.88
2022-11-02T06:16:13.092Z,22.50
2022-11-02T06:17:13.075Z,22.50
2022-11-02T06:18:13.062Z,22.50
2022-11-02T06:19:16.168Z,28.12
2022-11-02T06:20:14.044Z,28.12
2022-11-02T06:21:13.038Z,28.12
2022-11-02T06:22:13.032Z,33.75
2022-11-02T06:23:13.057Z,33.75
2022-11-02T06:24:13.015Z,39.38
2022-11-02T06:25:13.009Z,45.00
2022-11-02T06:26:12.995Z,50.62
2022-11-02T06:27:12.988Z,50.62
2022-11-02T06:28:13.015Z,56.25
2022-11-02T06:29:12.979Z,61.88
2022-11-02T06:30:12.960Z,67.50
2022-11-02T06:31:12.955Z,73.12
2022-11-02T06:32:12.945Z,78.75
2022-11-02T06:33:13.416Z,84.38
2022-11-02T06:34:12.956Z,90.00
2022-11-02T06:35:12.923Z,95.62
2022-11-02T06:36:12.913Z,95.62
2022-11-02T06:37:12.900Z,106.88
2022-11-02T06:38:12.924Z,135.00
2022-11-02T06:39:12.893Z,168.75
2022-11-02T06:40:12.877Z,230.62
2022-11-02T06:41:12.873Z,258.75
2022-11-02T06:42:12.856Z,275.62
2022-11-02T06:43:17.448Z,286.88
2022-11-02T06:44:14.846Z,281.25
2022-11-02T06:45:12.835Z,315.00
2022-11-02T06:46:12.829Z,320.62
2022-11-02T06:47:12.825Z,331.88
2022-11-02T06:48:12.843Z,354.38
2022-11-02T06:49:12.797Z,360.00
2022-11-02T06:50:12.792Z,371.25
2022-11-02T06:51:12.790Z,388.12
2022-11-02T06:52:12.770Z,416.25
2022-11-02T06:53:12.795Z,421.88
2022-11-02T06:54:12.769Z,455.62
2022-11-02T06:55:12.751Z,534.38
2022-11-02T06:56:12.735Z,298.12
2022-11-02T06:57:12.742Z,607.50
2022-11-02T06:58:12.798Z,832.50
2022-11-02T06:59:12.717Z,922.50
2022-11-02T07:00:14.477Z,641.25
2022-11-02T07:01:12.827Z,528.75
2022-11-02T07:02:12.749Z,264.38
2022-11-02T07:03:12.712Z,900.00
2022-11-02T07:04:12.674Z,450.00
2022-11-02T07:05:13.675Z,781.88
2022-11-02T07:06:14.429Z,1068.75
2022-11-02T07:07:13.649Z,1085.62
2022-11-02T07:08:12.670Z,736.88
2022-11-02T07:09:12.636Z,1406.25
2022-11-02T07:10:12.627Z,1428.75
2022-11-02T07:11:12.618Z,1456.88
2022-11-02T07:12:12.611Z,1333.12
2022-11-02T07:13:12.632Z,1400.62
2022-11-02T07:14:12.592Z,455.62
2022-11-02T07:15:12.591Z,343.12
2022-11-02T07:16:12.590Z,337.50
2022-11-02T07:17:12.572Z,343.12
2022-11-02T07:18:12.583Z,343.12
2022-11-02T07:19:12.549Z,641.25
2022-11-02T07:20:12.541Z,1670.62
2022-11-02T07:21:12.561Z,781.88
2022-11-02T07:22:12.526Z,1456.88
2022-11-02T07:23:12.544Z,630.00
2022-11-02T07:24:12.506Z,1811.25
2022-11-02T07:25:12.503Z,1833.75
2022-11-02T07:26:12.511Z,697.50
2022-11-02T07:27:12.483Z,1299.38
2022-11-02T07:28:12.506Z,1800.00
2022-11-02T07:29:12.480Z,2154.38
2022-11-02T07:30:12.455Z,1957.50
2022-11-02T07:31:12.451Z,2233.12
2022-11-02T07:32:12.440Z,2233.12
2022-11-02T07:33:12.467Z,2210.62
2022-11-02T07:34:16.677Z,2261.25
2022-11-02T07:35:13.420Z,1749.38
2022-11-02T07:36:12.406Z,2244.38
2022-11-02T07:37:12.405Z,2435.62
2022-11-02T07:38:12.411Z,2480.62
2022-11-02T07:39:13.379Z,2463.75
2022-11-02T07:40:12.375Z,2469.38
2022-11-02T07:41:12.369Z,2514.38
2022-11-02T07:42:12.360Z,2525.62
2022-11-02T07:43:12.375Z,2626.88
2022-11-02T07:44:12.353Z,2626.88
2022-11-02T07:45:12.334Z,2677.50
2022-11-02T07:46:12.319Z,2700.00
2022-11-02T07:47:12.309Z,2694.38
2022-11-02T07:48:12.333Z,2756.25
2022-11-02T07:49:13.100Z,2818.12
2022-11-02T07:50:12.294Z,2953.12
2022-11-02T07:51:12.280Z,2930.62
2022-11-02T07:52:12.276Z,2840.62
2022-11-02T07:53:12.298Z,2925.00
2022-11-02T07:54:12.256Z,2947.50
2022-11-02T07:55:12.247Z,2970.00
2022-11-02T07:56:12.236Z,3048.75
2022-11-02T07:57:12.228Z,1833.75
2022-11-02T07:58:12.251Z,3144.38
2022-11-02T07:59:12.212Z,635.62
2022-11-02T08:00:12.209Z,1912.50
2022-11-02T08:01:12.240Z,2840.62
2022-11-02T08:02:12.199Z,3172.50
2022-11-02T08:03:12.552Z,838.12
2022-11-02T08:04:12.220Z,523.12
2022-11-02T08:05:12.162Z,489.38
2022-11-02T08:06:12.148Z,562.50
2022-11-02T08:07:12.153Z,444.38
2022-11-02T08:08:12.168Z,421.88
2022-11-02T08:09:12.132Z,382.50
2022-11-02T08:10:12.119Z,382.50
2022-11-02T08:11:12.114Z,421.88
2022-11-02T08:12:12.102Z,489.38
2022-11-02T08:13:12.130Z,860.62
2022-11-02T08:14:12.092Z,652.50
2022-11-02T08:15:12.079Z,3268.12
2022-11-02T08:16:12.071Z,1586.25
2022-11-02T08:17:12.061Z,3240.00
2022-11-02T08:18:12.095Z,871.88
2022-11-02T08:19:12.043Z,3363.75
2022-11-02T08:20:12.035Z,2700.00
2022-11-02T08:21:12.039Z,916.88
2022-11-02T08:22:12.016Z,3453.75
2022-11-02T08:23:12.037Z,466.88
2022-11-02T08:24:12.002Z,427.50
2022-11-02T08:25:12.019Z,444.38
2022-11-02T08:26:11.991Z,495.00
2022-11-02T08:27:11.974Z,3346.88
2022-11-02T08:28:11.993Z,2143.12
2022-11-02T08:29:11.958Z,3346.88
2022-11-02T08:30:11.951Z,3436.88
2022-11-02T08:31:11.939Z,3560.62
2022-11-02T08:32:11.930Z,3639.38
2022-11-02T08:33:11.967Z,3628.12
2022-11-02T08:34:11.931Z,3616.88
2022-11-02T08:35:11.908Z,3695.62
2022-11-02T08:36:12.908Z,3881.25
2022-11-02T08:37:11.899Z,3948.75
2022-11-02T08:38:11.893Z,3926.25
2022-11-02T08:39:17.494Z,3881.25
2022-11-02T08:40:13.870Z,3847.50
2022-11-02T08:41:11.863Z,3858.75
2022-11-02T08:42:11.852Z,3926.25
2022-11-02T08:43:11.856Z,3735.00
2022-11-02T08:44:11.862Z,3577.50
2022-11-02T08:45:11.828Z,2902.50
2022-11-02T08:46:16.591Z,956.25
2022-11-02T08:47:13.810Z,3870.00
2022-11-02T08:48:11.802Z,3836.25
2022-11-02T08:49:11.828Z,3870.00
2022-11-02T08:50:11.787Z,1158.75
2022-11-02T08:51:11.777Z,2120.62
2022-11-02T08:52:11.792Z,3785.62
2022-11-02T08:53:11.766Z,714.38
2022-11-02T08:54:11.783Z,630.00
2022-11-02T08:55:11.748Z,708.75
2022-11-02T08:56:11.742Z,585.00
2022-11-02T08:57:11.737Z,500.62
2022-11-02T08:58:11.722Z,776.25
2022-11-02T08:59:11.744Z,534.38
2022-11-02T09:00:11.709Z,461.25
2022-11-02T09:01:11.749Z,455.62
2022-11-02T09:02:11.826Z,438.75
2022-11-02T09:03:11.674Z,399.38
2022-11-02T09:04:11.697Z,450.00
2022-11-02T09:05:11.655Z,360.00
2022-11-02T09:06:11.653Z,331.88
2022-11-02T09:07:11.645Z,354.38
2022-11-02T09:08:11.688Z,343.12
2022-11-02T09:09:11.660Z,281.25
2022-11-02T09:10:11.619Z,309.38
2022-11-02T09:11:11.638Z,388.12
2022-11-02T09:12:11.602Z,3802.50
2022-11-02T09:13:11.599Z,3864.38
2022-11-02T09:14:11.681Z,624.38
2022-11-02T09:15:11.585Z,3931.88
2022-11-02T09:16:11.576Z,4010.62
2022-11-02T09:17:11.566Z,590.62
2022-11-02T09:18:11.575Z,601.88
2022-11-02T09:19:11.580Z,658.12
2022-11-02T09:20:11.544Z,3982.50
2022-11-02T09:21:11.538Z,3853.12
2022-11-02T09:22:11.523Z,826.88
2022-11-02T09:23:11.512Z,1068.75
2022-11-02T09:24:11.528Z,3746.25
2022-11-02T09:25:11.512Z,472.50
2022-11-02T09:26:11.484Z,3875.62
2022-11-02T09:27:11.486Z,613.12
2022-11-02T09:28:11.692Z,1293.75
2022-11-02T09:29:11.551Z,4145.62
2022-11-02T09:30:11.453Z,905.62
2022-11-02T09:31:11.938Z,781.88
2022-11-02T09:32:11.438Z,4275.00
2022-11-02T09:33:12.436Z,4325.62
2022-11-02T09:34:11.456Z,4398.75
2022-11-02T09:35:11.419Z,4168.12
2022-11-02T09:36:11.409Z,2238.75
2022-11-02T09:37:11.402Z,596.25
2022-11-02T09:38:11.393Z,1068.75
2022-11-02T09:39:11.390Z,641.25
2022-11-02T09:40:11.405Z,658.12
2022-11-02T09:41:11.374Z,4207.50
2022-11-02T09:42:11.360Z,3768.75
2022-11-02T09:43:11.351Z,4297.50
2022-11-02T09:44:11.344Z,2626.88
2022-11-02T09:45:11.363Z,1563.75
2022-11-02T09:46:11.342Z,759.38
2022-11-02T09:47:56.290Z,4173.75
2022-11-02T09:48:19.704Z,545.62
2022-11-02T09:49:13.303Z,4230.00
2022-11-02T09:50:11.374Z,1732.50
2022-11-02T09:51:11.285Z,478.12
2022-11-02T09:52:11.276Z,433.12
2022-11-02T09:53:11.272Z,478.12
2022-11-02T09:54:13.242Z,1164.38
2022-11-02T09:55:12.284Z,2700.00
2022-11-02T09:56:11.244Z,1096.88
2022-11-02T09:57:11.248Z,714.38
2022-11-02T09:58:11.234Z,838.12
2022-11-02T09:59:11.226Z,1181.25
2022-11-02T10:00:11.241Z,579.38
2022-11-02T10:01:11.232Z,472.50
2022-11-02T10:02:11.200Z,506.25
2022-11-02T10:03:11.192Z,444.38
2022-11-02T10:04:11.181Z,579.38
2022-11-02T10:05:11.198Z,3954.38
2022-11-02T10:06:11.162Z,472.50
2022-11-02T10:07:11.153Z,405.00
2022-11-02T10:08:11.165Z,433.12
2022-11-02T10:09:11.133Z,405.00
2022-11-02T10:10:11.154Z,483.75
2022-11-02T10:11:11.115Z,3954.38
2022-11-02T10:12:11.112Z,2975.62
2022-11-02T10:13:11.117Z,551.25
2022-11-02T10:14:11.099Z,686.25
2022-11-02T10:15:11.121Z,1136.25
2022-11-02T10:16:11.081Z,765.00
2022-11-02T10:17:11.079Z,646.88
2022-11-02T10:18:11.067Z,725.62
2022-11-02T10:19:11.052Z,4381.88
2022-11-02T10:20:11.077Z,1513.12
2022-11-02T10:21:11.039Z,1479.38
2022-11-02T10:22:11.023Z,933.75
2022-11-02T10:23:11.009Z,1968.75
2022-11-02T10:24:12.020Z,967.50
2022-11-02T10:25:11.031Z,3217.50
2022-11-02T10:26:10.991Z,855.00
2022-11-02T10:27:14.124Z,596.25
2022-11-02T10:28:12.010Z,708.75
2022-11-02T10:29:10.972Z,551.25
2022-11-02T10:30:10.998Z,540.00
2022-11-02T10:31:15.497Z,500.62
2022-11-02T10:32:11.953Z,523.12
2022-11-02T10:33:10.946Z,466.88
2022-11-02T10:34:10.930Z,1085.62
2022-11-02T10:35:31.249Z,4280.62
2022-11-02T10:36:18.166Z,4213.12
2022-11-02T10:37:12.908Z,1305.00
2022-11-02T10:38:15.042Z,4072.50
2022-11-02T10:39:11.892Z,3391.88
2022-11-02T10:40:10.887Z,1456.88
2022-11-02T10:41:10.906Z,984.38
2022-11-02T10:42:10.868Z,731.25
2022-11-02T10:43:10.854Z,928.12
2022-11-02T10:44:10.854Z,776.25
2022-11-02T10:45:10.834Z,804.38
2022-11-02T10:46:10.863Z,1203.75
2022-11-02T10:47:10.824Z,641.25
2022-11-02T10:48:10.818Z,781.88
2022-11-02T10:49:10.816Z,2778.75
2022-11-02T10:50:12.472Z,815.62
2022-11-02T10:51:11.818Z,4095.00
2022-11-02T10:52:10.782Z,1209.38
2022-11-02T10:53:35.337Z,2283.75
2022-11-02T10:54:12.772Z,4016.25
2022-11-02T10:55:10.834Z,4027.50
2022-11-02T10:56:10.776Z,4123.12
2022-11-02T10:57:10.749Z,4134.38
2022-11-02T10:58:10.739Z,2435.62
2022-11-02T10:59:10.724Z,708.75
2022-11-02T11:00:10.714Z,748.12
2022-11-02T11:01:10.846Z,995.62
2022-11-02T11:02:10.732Z,2081.25
2022-11-02T11:03:10.685Z,939.38
2022-11-02T11:04:10.679Z,4291.88
2022-11-02T11:05:10.674Z,4359.38
2022-11-02T11:06:10.691Z,4168.12
2022-11-02T11:07:10.662Z,4168.12
2022-11-02T11:08:10.648Z,1001.25
2022-11-02T11:09:10.644Z,4106.25
2022-11-02T11:10:10.660Z,4201.88
2022-11-02T11:11:10.630Z,4213.12
2022-11-02T11:12:10.617Z,4033.12
2022-11-02T11:16:16.326Z,4005.00
2022-11-02T11:20:12.577Z,4027.50
2022-11-02T11:21:10.555Z,4016.25
2022-11-02T11:22:10.536Z,3886.88
2022-11-02T11:23:10.529Z,3847.50
2022-11-02T11:24:10.555Z,3948.75
2022-11-02T11:25:10.553Z,3931.88
2022-11-02T11:26:10.510Z,3965.62
2022-11-02T11:27:10.496Z,3931.88
2022-11-02T11:28:10.489Z,3976.88
2022-11-02T11:29:10.478Z,4027.50
2022-11-02T11:30:10.539Z,3915.00
2022-11-02T11:31:10.465Z,3937.50
2022-11-02T11:32:10.459Z,2835.00
2022-11-02T11:33:10.446Z,3943.12
2022-11-02T11:34:10.445Z,3943.12
2022-11-02T11:35:10.436Z,3847.50
2022-11-02T11:36:10.520Z,3718.12
2022-11-02T11:37:10.427Z,4055.62
2022-11-02T11:38:10.407Z,686.25
2022-11-02T11:39:10.398Z,4083.75
2022-11-02T11:40:10.391Z,4095.00
2022-11-02T11:41:10.410Z,4066.88
2022-11-02T11:42:10.371Z,1327.50
2022-11-02T11:43:10.392Z,714.38
2022-11-02T11:44:10.359Z,4111.88
2022-11-02T11:45:10.354Z,1805.62
2022-11-02T11:46:10.385Z,708.75
2022-11-02T11:47:10.337Z,720.00
2022-11-02T11:48:10.327Z,973.12
2022-11-02T11:49:10.326Z,4033.12
2022-11-02T11:50:13.805Z,3988.12
2022-11-02T11:51:11.332Z,3892.50
2022-11-02T11:52:10.303Z,3560.62
2022-11-02T11:53:10.288Z,3420.00
2022-11-02T11:54:10.282Z,3391.88
2022-11-02T11:55:10.288Z,1828.12
2022-11-02T11:56:10.387Z,1344.38
2022-11-02T11:57:10.260Z,753.75
2022-11-02T11:58:10.250Z,686.25
2022-11-02T11:59:10.241Z,562.50
2022-11-02T12:00:10.236Z,545.62
2022-11-02T12:01:11.056Z,1620.00
2022-11-02T12:02:10.492Z,652.50
2022-11-02T12:03:10.614Z,680.62
2022-11-02T12:04:10.201Z,1839.38
2022-11-02T12:05:10.212Z,1687.50
2022-11-02T12:06:10.212Z,1749.38
2022-11-02T12:07:10.178Z,1726.88
2022-11-02T12:08:10.595Z,1743.75
2022-11-02T12:09:10.160Z,1783.12
2022-11-02T12:10:10.159Z,1861.88
2022-11-02T12:11:13.736Z,1890.00
2022-11-02T12:12:11.139Z,478.12
2022-11-02T12:13:10.129Z,2250.00
2022-11-02T12:14:10.121Z,2480.62
2022-11-02T12:15:10.116Z,2385.00
2022-11-02T12:16:10.134Z,2238.75
2022-11-02T12:17:10.098Z,2216.25
2022-11-02T12:18:10.091Z,2188.12
2022-11-02T12:19:10.088Z,2075.62
2022-11-02T12:20:10.075Z,1974.38
2022-11-02T12:21:10.099Z,2019.38
2022-11-02T12:22:10.059Z,2058.75
2022-11-02T12:23:10.062Z,1980.00
2022-11-02T12:24:10.042Z,1884.38
2022-11-02T12:25:10.035Z,1462.50
2022-11-02T12:26:10.076Z,562.50
2022-11-02T12:27:10.016Z,691.88
2022-11-02T12:28:10.059Z,1890.00
2022-11-02T12:29:10.004Z,1867.50
2022-11-02T12:30:09.994Z,1873.12
2022-11-02T12:31:10.024Z,1845.00
2022-11-02T12:32:09.971Z,1828.12
2022-11-02T12:33:10.986Z,1783.12
2022-11-02T12:34:09.965Z,1783.12
2022-11-02T12:36:11.988Z,1760.62
2022-11-02T12:37:35.359Z,1783.12
2022-11-02T12:38:11.964Z,1777.50
2022-11-02T12:39:09.928Z,1794.38
2022-11-02T12:40:09.960Z,1811.25
2022-11-02T12:41:09.950Z,1800.00
2022-11-02T12:42:09.904Z,1856.25
2022-11-02T12:43:09.920Z,736.88
2022-11-02T12:44:09.884Z,1462.50
2022-11-02T12:45:09.880Z,1901.25
2022-11-02T12:46:09.896Z,1923.75
2022-11-02T12:47:09.876Z,1918.12
2022-11-02T12:48:09.859Z,1946.25
2022-11-02T12:49:09.844Z,1811.25
2022-11-02T12:50:09.837Z,1530.00
2022-11-02T12:51:09.863Z,410.62
2022-11-02T12:52:09.838Z,376.88